San Antonio, Texas
Current Conditions -  °F | °C
As of 1:58 PM on Saturday 25 Oct 2014 (Local Time) from KSKF Reporting Station
Clear Clear  
Wind Chill: 86°   Ceiling: Unl
Heat Index: 86°   Visibility: 10mi
Dew Point: 56°   Wind: 2mph
Humidity: 36%   Direction: NA
Pressure: 30.12"   Gusts: NA
Location:  29.42°N, 98.49°W
Report Text: KSKF 251858Z AUTO VRB02KT 10SM CLR 30/14 A3012 RMK AO2 DZB1838E1849 SLP193 P0000 T03000136 $
Loading
Personal Weather Stations






























Interactive Weather Map
Tropical Storm Tracking
New forecast layout! Learn more

10-Day Weather Forecast

Advertisements
Track Severe Weather on mobile